sensor_id;sensor_type;location;lat;lon;timestamp;pressure;altitude;pressure_sealevel;temperature;humidity
62864;BME280;48954;59.950;11.014;2022-10-16T00:02:13;98148.41;;;8.71;83.01
62864;BME280;48954;59.950;11.014;2022-10-16T00:04:38;98154.67;;;8.68;82.93
62864;BME280;48954;59.950;11.014;2022-10-16T00:07:04;98157.86;;;8.65;82.97
62864;BME280;48954;59.950;11.014;2022-10-16T00:09:30;98156.81;;;8.60;82.91
62864;BME280;48954;59.950;11.014;2022-10-16T00:11:58;98163.77;;;8.55;82.89
62864;BME280;48954;59.950;11.014;2022-10-16T00:14:24;98162.80;;;8.49;82.75
62864;BME280;48954;59.950;11.014;2022-10-16T00:16:50;98161.27;;;8.43;82.62
62864;BME280;48954;59.950;11.014;2022-10-16T00:19:16;98168.13;;;8.36;82.69
62864;BME280;48954;59.950;11.014;2022-10-16T00:21:41;98170.96;;;8.30;82.61
62864;BME280;48954;59.950;11.014;2022-10-16T00:24:08;98167.39;;;8.23;82.73
62864;BME280;48954;59.950;11.014;2022-10-16T00:26:36;98166.49;;;8.16;82.81
62864;BME280;48954;59.950;11.014;2022-10-16T00:29:07;98170.44;;;8.10;82.62
62864;BME280;48954;59.950;11.014;2022-10-16T00:31:33;98178.69;;;8.04;82.76
62864;BME280;48954;59.950;11.014;2022-10-16T00:33:59;98183.42;;;7.99;82.82
62864;BME280;48954;59.950;11.014;2022-10-16T00:36:26;98192.93;;;7.95;82.77
62864;BME280;48954;59.950;11.014;2022-10-16T00:38:54;98193.23;;;7.91;82.91
62864;BME280;48954;59.950;11.014;2022-10-16T00:41:22;98199.52;;;7.86;82.75
62864;BME280;48954;59.950;11.014;2022-10-16T00:43:56;98201.26;;;7.81;82.65
62864;BME280;48954;59.950;11.014;2022-10-16T00:46:49;98206.85;;;7.74;82.76
62864;BME280;48954;59.950;11.014;2022-10-16T00:49:17;98208.36;;;7.70;82.85
62864;BME280;48954;59.950;11.014;2022-10-16T00:51:46;98214.27;;;7.65;82.77
62864;BME280;48954;59.950;11.014;2022-10-16T00:54:24;98217.29;;;7.61;82.75
62864;BME280;48954;59.950;11.014;2022-10-16T00:56:51;98222.79;;;7.58;82.77
62864;BME280;48954;59.950;11.014;2022-10-16T00:59:34;98233.77;;;7.52;82.69
62864;BME280;48954;59.950;11.014;2022-10-16T01:02:18;98236.85;;;7.48;82.57
62864;BME280;48954;59.950;11.014;2022-10-16T01:04:49;98236.64;;;7.43;82.61
62864;BME280;48954;59.950;11.014;2022-10-16T01:12:30;98240.45;;;7.27;82.48
62864;BME280;48954;59.950;11.014;2022-10-16T01:15:01;98250.51;;;7.24;82.65
62864;BME280;48954;59.950;11.014;2022-10-16T01:17:41;98250.30;;;7.21;82.59
62864;BME280;48954;59.950;11.014;2022-10-16T01:20:31;98252.23;;;7.18;82.94
62864;BME280;48954;59.950;11.014;2022-10-16T01:28:25;98272.21;;;7.05;82.57
62864;BME280;48954;59.950;11.014;2022-10-16T01:30:58;98270.05;;;6.99;82.51
62864;BME280;48954;59.950;11.014;2022-10-16T01:33:32;98267.18;;;6.95;82.36
62864;BME280;48954;59.950;11.014;2022-10-16T01:36:07;98270.75;;;6.88;82.34
62864;BME280;48954;59.950;11.014;2022-10-16T01:38:41;98270.32;;;6.84;82.44
62864;BME280;48954;59.950;11.014;2022-10-16T01:41:21;98270.39;;;6.78;82.50
62864;BME280;48954;59.950;11.014;2022-10-16T01:43:53;98268.47;;;6.74;82.56
62864;BME280;48954;59.950;11.014;2022-10-16T01:46:23;98270.50;;;6.69;82.57
62864;BME280;48954;59.950;11.014;2022-10-16T01:48:53;98270.52;;;6.65;82.49
62864;BME280;48954;59.950;11.014;2022-10-16T01:51:20;98271.63;;;6.60;82.46
62864;BME280;48954;59.950;11.014;2022-10-16T01:53:50;98267.10;;;6.55;82.53
62864;BME280;48954;59.950;11.014;2022-10-16T01:56:18;98267.02;;;6.50;82.53
62864;BME280;48954;59.950;11.014;2022-10-16T01:58:49;98268.05;;;6.45;82.48
62864;BME280;48954;59.950;11.014;2022-10-16T02:01:19;98271.91;;;6.38;82.38
62864;BME280;48954;59.950;11.014;2022-10-16T02:03:46;98274.48;;;6.31;82.33
62864;BME280;48954;59.950;11.014;2022-10-16T02:06:14;98272.68;;;6.27;82.43
62864;BME280;48954;59.950;11.014;2022-10-16T02:08:40;98275.11;;;6.22;82.32
62864;BME280;48954;59.950;11.014;2022-10-16T02:11:06;98278.17;;;6.19;82.59
62864;BME280;48954;59.950;11.014;2022-10-16T02:13:45;98277.65;;;6.16;82.39
62864;BME280;48954;59.950;11.014;2022-10-16T02:16:13;98275.02;;;6.12;82.47
62864;BME280;48954;59.950;11.014;2022-10-16T02:18:40;98275.29;;;6.08;82.51
62864;BME280;48954;59.950;11.014;2022-10-16T02:24:05;98274.26;;;6.03;82.62
62864;BME280;48954;59.950;11.014;2022-10-16T02:26:40;98275.83;;;6.00;82.67
62864;BME280;48954;59.950;11.014;2022-10-16T02:29:10;98280.01;;;5.97;82.71
62864;BME280;48954;59.950;11.014;2022-10-16T02:31:41;98287.92;;;5.94;82.83
62864;BME280;48954;59.950;11.014;2022-10-16T02:34:10;98290.45;;;5.92;82.95
62864;BME280;48954;59.950;11.014;2022-10-16T02:36:36;98289.98;;;5.88;82.89
62864;BME280;48954;59.950;11.014;2022-10-16T02:39:04;98296.52;;;5.88;83.06
62864;BME280;48954;59.950;11.014;2022-10-16T02:41:30;98296.11;;;5.88;83.16
62864;BME280;48954;59.950;11.014;2022-10-16T02:43:56;98297.02;;;5.89;83.03
62864;BME280;48954;59.950;11.014;2022-10-16T02:46:21;98298.77;;;5.87;83.03
62864;BME280;48954;59.950;11.014;2022-10-16T02:48:47;98305.20;;;5.85;83.20
62864;BME280;48954;59.950;11.014;2022-10-16T02:51:14;98309.52;;;5.84;83.03
62864;BME280;48954;59.950;11.014;2022-10-16T02:53:40;98307.89;;;5.83;82.96
62864;BME280;48954;59.950;11.014;2022-10-16T02:56:07;98305.43;;;5.81;83.16
62864;BME280;48954;59.950;11.014;2022-10-16T02:58:36;98306.77;;;5.78;83.08
62864;BME280;48954;59.950;11.014;2022-10-16T03:01:02;98306.11;;;5.72;82.87
62864;BME280;48954;59.950;11.014;2022-10-16T03:03:28;98310.39;;;5.71;83.20
62864;BME280;48954;59.950;11.014;2022-10-16T03:05:53;98310.71;;;5.67;82.97
62864;BME280;48954;59.950;11.014;2022-10-16T03:08:19;98314.89;;;5.65;83.38
62864;BME280;48954;59.950;11.014;2022-10-16T03:10:45;98317.95;;;5.63;83.18
62864;BME280;48954;59.950;11.014;2022-10-16T03:13:11;98317.11;;;5.60;83.13
62864;BME280;48954;59.950;11.014;2022-10-16T03:15:37;98314.50;;;5.58;83.15
62864;BME280;48954;59.950;11.014;2022-10-16T03:18:03;98319.54;;;5.56;83.17
62864;BME280;48954;59.950;11.014;2022-10-16T03:20:28;98319.79;;;5.53;83.18
62864;BME280;48954;59.950;11.014;2022-10-16T03:22:54;98324.85;;;5.49;83.02
62864;BME280;48954;59.950;11.014;2022-10-16T03:25:20;98321.90;;;5.46;83.31
62864;BME280;48954;59.950;11.014;2022-10-16T03:27:45;98322.34;;;5.43;83.20
62864;BME280;48954;59.950;11.014;2022-10-16T03:30:11;98318.76;;;5.36;83.20
62864;BME280;48954;59.950;11.014;2022-10-16T03:32:37;98319.64;;;5.37;83.12
62864;BME280;48954;59.950;11.014;2022-10-16T03:35:03;98329.55;;;5.35;83.40
62864;BME280;48954;59.950;11.014;2022-10-16T03:37:29;98331.92;;;5.33;83.37
62864;BME280;48954;59.950;11.014;2022-10-16T03:39:55;98333.64;;;5.32;83.23
62864;BME280;48954;59.950;11.014;2022-10-16T03:42:21;98335.59;;;5.32;83.40
62864;BME280;48954;59.950;11.014;2022-10-16T03:44:46;98341.18;;;5.31;83.30
62864;BME280;48954;59.950;11.014;2022-10-16T03:47:12;98345.21;;;5.31;83.72
62864;BME280;48954;59.950;11.014;2022-10-16T03:49:38;98344.07;;;5.32;83.78
62864;BME280;48954;59.950;11.014;2022-10-16T03:52:04;98346.96;;;5.32;83.68
62864;BME280;48954;59.950;11.014;2022-10-16T03:54:29;98349.30;;;5.33;84.02
62864;BME280;48954;59.950;11.014;2022-10-16T03:56:55;98346.12;;;5.34;83.89
62864;BME280;48954;59.950;11.014;2022-10-16T03:59:21;98348.72;;;5.35;83.82
62864;BME280;48954;59.950;11.014;2022-10-16T04:01:47;98348.27;;;5.36;83.96
62864;BME280;48954;59.950;11.014;2022-10-16T04:04:12;98349.86;;;5.38;83.98
62864;BME280;48954;59.950;11.014;2022-10-16T04:06:38;98352.41;;;5.39;83.88
62864;BME280;48954;59.950;11.014;2022-10-16T04:09:04;98356.55;;;5.41;84.03
62864;BME280;48954;59.950;11.014;2022-10-16T04:11:30;98356.09;;;5.41;83.95
62864;BME280;48954;59.950;11.014;2022-10-16T04:13:56;98355.98;;;5.40;83.98
62864;BME280;48954;59.950;11.014;2022-10-16T04:16:24;98351.70;;;5.40;83.96
62864;BME280;48954;59.950;11.014;2022-10-16T04:18:49;98351.37;;;5.39;83.91
62864;BME280;48954;59.950;11.014;2022-10-16T04:21:15;98351.43;;;5.37;83.83
62864;BME280;48954;59.950;11.014;2022-10-16T04:23:42;98359.11;;;5.40;84.20
62864;BME280;48954;59.950;11.014;2022-10-16T04:26:08;98356.38;;;5.40;83.93
62864;BME280;48954;59.950;11.014;2022-10-16T04:28:33;98359.70;;;5.38;83.78
62864;BME280;48954;59.950;11.014;2022-10-16T04:30:59;98362.88;;;5.37;83.98
62864;BME280;48954;59.950;11.014;2022-10-16T04:33:25;98362.02;;;5.37;84.12
62864;BME280;48954;59.950;11.014;2022-10-16T04:35:57;98366.23;;;5.38;84.14
62864;BME280;48954;59.950;11.014;2022-10-16T04:38:24;98361.66;;;5.39;84.02
62864;BME280;48954;59.950;11.014;2022-10-16T04:40:50;98364.63;;;5.39;84.06
62864;BME280;48954;59.950;11.014;2022-10-16T04:43:15;98366.69;;;5.41;84.30
62864;BME280;48954;59.950;11.014;2022-10-16T04:45:41;98360.66;;;5.40;84.02
62864;BME280;48954;59.950;11.014;2022-10-16T04:48:07;98365.27;;;5.41;84.28
62864;BME280;48954;59.950;11.014;2022-10-16T04:50:32;98366.91;;;5.41;83.94
62864;BME280;48954;59.950;11.014;2022-10-16T04:52:58;98366.19;;;5.39;84.08
62864;BME280;48954;59.950;11.014;2022-10-16T04:55:24;98369.77;;;5.39;84.49
62864;BME280;48954;59.950;11.014;2022-10-16T04:57:50;98366.66;;;5.39;84.23
62864;BME280;48954;59.950;11.014;2022-10-16T05:00:15;98367.61;;;5.40;84.20
62864;BME280;48954;59.950;11.014;2022-10-16T05:02:41;98367.23;;;5.41;84.31
62864;BME280;48954;59.950;11.014;2022-10-16T05:05:07;98368.59;;;5.39;84.15
62864;BME280;48954;59.950;11.014;2022-10-16T05:07:33;98373.33;;;5.42;84.34
62864;BME280;48954;59.950;11.014;2022-10-16T05:09:58;98378.96;;;5.43;84.31
62864;BME280;48954;59.950;11.014;2022-10-16T05:12:24;98379.95;;;5.42;84.25
62864;BME280;48954;59.950;11.014;2022-10-16T05:14:50;98379.97;;;5.42;84.22
62864;BME280;48954;59.950;11.014;2022-10-16T05:17:16;98380.94;;;5.44;84.18
62864;BME280;48954;59.950;11.014;2022-10-16T05:19:41;98382.98;;;5.45;84.36
62864;BME280;48954;59.950;11.014;2022-10-16T05:22:07;98380.70;;;5.44;84.40
62864;BME280;48954;59.950;11.014;2022-10-16T05:24:33;98381.00;;;5.43;84.10
62864;BME280;48954;59.950;11.014;2022-10-16T05:26:59;98382.21;;;5.42;84.29
62864;BME280;48954;59.950;11.014;2022-10-16T05:29:24;98380.05;;;5.43;84.50
62864;BME280;48954;59.950;11.014;2022-10-16T05:31:52;98380.89;;;5.42;84.50
62864;BME280;48954;59.950;11.014;2022-10-16T05:34:18;98382.06;;;5.42;84.44
62864;BME280;48954;59.950;11.014;2022-10-16T05:36:44;98385.61;;;5.41;84.33
62864;BME280;48954;59.950;11.014;2022-10-16T05:39:10;98381.18;;;5.41;84.48
62864;BME280;48954;59.950;11.014;2022-10-16T05:41:35;98379.23;;;5.41;84.57
62864;BME280;48954;59.950;11.014;2022-10-16T05:44:05;98381.95;;;5.41;84.64
62864;BME280;48954;59.950;11.014;2022-10-16T05:46:34;98380.27;;;5.42;84.69
62864;BME280;48954;59.950;11.014;2022-10-16T05:49:00;98382.20;;;5.46;84.66
62864;BME280;48954;59.950;11.014;2022-10-16T05:51:26;98381.23;;;5.48;84.55
62864;BME280;48954;59.950;11.014;2022-10-16T05:53:52;98380.95;;;5.50;84.74
62864;BME280;48954;59.950;11.014;2022-10-16T05:56:18;98376.62;;;5.50;84.84
62864;BME280;48954;59.950;11.014;2022-10-16T05:58:43;98380.42;;;5.54;84.61
62864;BME280;48954;59.950;11.014;2022-10-16T06:01:17;98381.40;;;5.55;84.55
62864;BME280;48954;59.950;11.014;2022-10-16T06:03:43;98383.94;;;5.58;84.63
62864;BME280;48954;59.950;11.014;2022-10-16T06:06:21;98383.96;;;5.60;84.87
62864;BME280;48954;59.950;11.014;2022-10-16T06:08:48;98386.44;;;5.62;84.64
62864;BME280;48954;59.950;11.014;2022-10-16T06:11:16;98386.92;;;5.63;84.69
62864;BME280;48954;59.950;11.014;2022-10-16T06:13:44;98393.51;;;5.65;84.73
62864;BME280;48954;59.950;11.014;2022-10-16T06:16:10;98396.60;;;5.67;84.49
62864;BME280;48954;59.950;11.014;2022-10-16T06:18:36;98393.73;;;5.68;84.70
62864;BME280;48954;59.950;11.014;2022-10-16T06:21:10;98393.95;;;5.71;84.79
62864;BME280;48954;59.950;11.014;2022-10-16T06:23:37;98391.50;;;5.74;84.85
62864;BME280;48954;59.950;11.014;2022-10-16T06:26:11;98394.97;;;5.77;84.79
62864;BME280;48954;59.950;11.014;2022-10-16T06:28:38;98395.23;;;5.78;84.64
62864;BME280;48954;59.950;11.014;2022-10-16T06:31:05;98395.83;;;5.80;84.96
62864;BME280;48954;59.950;11.014;2022-10-16T06:33:31;98400.16;;;5.82;85.02
62864;BME280;48954;59.950;11.014;2022-10-16T06:36:05;98403.69;;;5.83;84.81
62864;BME280;48954;59.950;11.014;2022-10-16T06:38:32;98413.48;;;5.86;84.80
62864;BME280;48954;59.950;11.014;2022-10-16T06:40:58;98416.04;;;5.88;84.98
62864;BME280;48954;59.950;11.014;2022-10-16T06:43:25;98414.80;;;5.91;84.90
62864;BME280;48954;59.950;11.014;2022-10-16T06:45:55;98411.33;;;5.93;84.75
62864;BME280;48954;59.950;11.014;2022-10-16T06:48:25;98408.68;;;5.94;84.64
62864;BME280;48954;59.950;11.014;2022-10-16T06:51:16;98412.94;;;5.96;84.88
62864;BME280;48954;59.950;11.014;2022-10-16T06:53:50;98408.98;;;5.98;84.69
62864;BME280;48954;59.950;11.014;2022-10-16T06:56:23;98408.30;;;6.03;84.93
62864;BME280;48954;59.950;11.014;2022-10-16T06:58:50;98395.93;;;6.00;84.84
62864;BME280;48954;59.950;11.014;2022-10-16T07:01:18;98402.71;;;6.10;84.98
62864;BME280;48954;59.950;11.014;2022-10-16T07:03:45;98399.36;;;6.17;85.01
62864;BME280;48954;59.950;11.014;2022-10-16T07:06:14;98397.66;;;6.23;84.82
62864;BME280;48954;59.950;11.014;2022-10-16T07:08:42;98395.59;;;6.29;84.94
62864;BME280;48954;59.950;11.014;2022-10-16T07:11:11;98396.52;;;6.33;84.79
62864;BME280;48954;59.950;11.014;2022-10-16T07:13:39;98390.70;;;6.39;84.91
62864;BME280;48954;59.950;11.014;2022-10-16T07:16:09;98395.03;;;6.46;84.90
62864;BME280;48954;59.950;11.014;2022-10-16T07:18:36;98392.86;;;6.53;85.01
62864;BME280;48954;59.950;11.014;2022-10-16T07:21:12;98391.61;;;6.61;84.97
62864;BME280;48954;59.950;11.014;2022-10-16T07:23:38;98392.64;;;6.72;85.04
62864;BME280;48954;59.950;11.014;2022-10-16T07:26:05;98386.49;;;6.79;85.02
62864;BME280;48954;59.950;11.014;2022-10-16T07:28:33;98377.80;;;6.87;85.14
62864;BME280;48954;59.950;11.014;2022-10-16T07:31:08;98383.94;;;6.96;85.06
62864;BME280;48954;59.950;11.014;2022-10-16T07:33:35;98387.41;;;7.04;84.72
62864;BME280;48954;59.950;11.014;2022-10-16T07:36:01;98384.48;;;7.11;84.69
62864;BME280;48954;59.950;11.014;2022-10-16T07:38:27;98383.23;;;7.18;84.91
62864;BME280;48954;59.950;11.014;2022-10-16T07:41:02;98384.71;;;7.23;84.70
62864;BME280;48954;59.950;11.014;2022-10-16T07:43:28;98389.98;;;7.25;84.76
62864;BME280;48954;59.950;11.014;2022-10-16T07:45:57;98393.83;;;7.26;84.70
62864;BME280;48954;59.950;11.014;2022-10-16T07:48:26;98398.52;;;7.27;84.61
62864;BME280;48954;59.950;11.014;2022-10-16T07:50:52;98405.63;;;7.27;84.29
62864;BME280;48954;59.950;11.014;2022-10-16T07:53:18;98405.16;;;7.27;84.23
62864;BME280;48954;59.950;11.014;2022-10-16T07:55:44;98402.67;;;7.29;84.30
62864;BME280;48954;59.950;11.014;2022-10-16T07:58:09;98397.37;;;7.29;84.16
62864;BME280;48954;59.950;11.014;2022-10-16T08:00:36;98396.35;;;7.29;84.22
62864;BME280;48954;59.950;11.014;2022-10-16T08:03:02;98397.45;;;7.27;84.27
62864;BME280;48954;59.950;11.014;2022-10-16T08:05:31;98394.14;;;7.26;84.31
62864;BME280;48954;59.950;11.014;2022-10-16T08:07:58;98390.46;;;7.25;84.18
62864;BME280;48954;59.950;11.014;2022-10-16T08:10:28;98390.13;;;7.24;84.29
62864;BME280;48954;59.950;11.014;2022-10-16T08:13:18;98398.74;;;7.20;84.15
62864;BME280;48954;59.950;11.014;2022-10-16T08:28:44;98385.52;;;7.08;84.57
62864;BME280;48954;59.950;11.014;2022-10-16T08:31:32;98373.91;;;7.09;84.51
62864;BME280;48954;59.950;11.014;2022-10-16T08:36:44;98372.94;;;7.12;84.78
62864;BME280;48954;59.950;11.014;2022-10-16T08:39:13;98363.88;;;7.12;84.75
62864;BME280;48954;59.950;11.014;2022-10-16T08:44:59;98368.54;;;7.17;85.06
62864;BME280;48954;59.950;11.014;2022-10-16T08:47:45;98366.22;;;7.19;85.11
62864;BME280;48954;59.950;11.014;2022-10-16T08:50:22;98358.69;;;7.23;85.19
62864;BME280;48954;59.950;11.014;2022-10-16T08:53:04;98355.45;;;7.25;85.13
62864;BME280;48954;59.950;11.014;2022-10-16T08:55:49;98349.99;;;7.27;85.24
62864;BME280;48954;59.950;11.014;2022-10-16T08:58:18;98341.72;;;7.28;85.09
62864;BME280;48954;59.950;11.014;2022-10-16T09:00:51;98345.39;;;7.26;85.11
62864;BME280;48954;59.950;11.014;2022-10-16T09:12:15;98336.33;;;7.27;85.48
62864;BME280;48954;59.950;11.014;2022-10-16T09:15:13;98332.77;;;7.31;85.69
62864;BME280;48954;59.950;11.014;2022-10-16T09:25:50;98317.02;;;7.40;85.72
62864;BME280;48954;59.950;11.014;2022-10-16T09:28:18;98305.70;;;7.40;85.57
62864;BME280;48954;59.950;11.014;2022-10-16T09:30:45;98301.23;;;7.40;85.42
62864;BME280;48954;59.950;11.014;2022-10-16T09:33:13;98297.65;;;7.41;85.71
62864;BME280;48954;59.950;11.014;2022-10-16T09:41:11;98281.58;;;7.43;85.70
62864;BME280;48954;59.950;11.014;2022-10-16T09:43:46;98284.34;;;7.45;85.71
62864;BME280;48954;59.950;11.014;2022-10-16T09:46:30;98278.41;;;7.46;85.82
62864;BME280;48954;59.950;11.014;2022-10-16T09:49:02;98278.29;;;7.48;85.63
62864;BME280;48954;59.950;11.014;2022-10-16T09:51:31;98270.21;;;7.47;85.74
62864;BME280;48954;59.950;11.014;2022-10-16T09:54:01;98268.27;;;7.47;85.82
62864;BME280;48954;59.950;11.014;2022-10-16T09:56:34;98260.21;;;7.48;85.72
62864;BME280;48954;59.950;11.014;2022-10-16T09:59:08;98260.53;;;7.48;85.89
62864;BME280;48954;59.950;11.014;2022-10-16T10:01:40;98261.68;;;7.46;85.77
62864;BME280;48954;59.950;11.014;2022-10-16T10:04:07;98260.82;;;7.46;85.80
62864;BME280;48954;59.950;11.014;2022-10-16T10:06:36;98254.93;;;7.45;85.71
62864;BME280;48954;59.950;11.014;2022-10-16T10:09:21;98255.71;;;7.44;85.86
62864;BME280;48954;59.950;11.014;2022-10-16T10:11:54;98260.64;;;7.44;85.90
62864;BME280;48954;59.950;11.014;2022-10-16T10:14:36;98254.12;;;7.41;85.95
62864;BME280;48954;59.950;11.014;2022-10-16T10:17:10;98256.06;;;7.40;86.01
62864;BME280;48954;59.950;11.014;2022-10-16T10:19:37;98249.03;;;7.40;86.20
62864;BME280;48954;59.950;11.014;2022-10-16T10:22:31;98240.98;;;7.41;86.51
62864;BME280;48954;59.950;11.014;2022-10-16T10:30:27;98237.36;;;7.60;86.88
62864;BME280;48954;59.950;11.014;2022-10-16T10:45:23;98235.20;;;7.72;86.67
62864;BME280;48954;59.950;11.014;2022-10-16T10:53:23;98245.23;;;7.73;86.56
62864;BME280;48954;59.950;11.014;2022-10-16T10:58:52;98235.48;;;7.75;86.68
62864;BME280;48954;59.950;11.014;2022-10-16T11:04:09;98227.77;;;7.79;86.56
62864;BME280;48954;59.950;11.014;2022-10-16T11:06:50;98224.42;;;7.82;86.62
62864;BME280;48954;59.950;11.014;2022-10-16T11:09:24;98216.52;;;7.88;86.68
62864;BME280;48954;59.950;11.014;2022-10-16T11:11:58;98217.02;;;7.95;86.51
62864;BME280;48954;59.950;11.014;2022-10-16T11:14:41;98212.95;;;8.03;86.60
62864;BME280;48954;59.950;11.014;2022-10-16T11:17:28;98201.63;;;8.15;86.62
62864;BME280;48954;59.950;11.014;2022-10-16T11:20:13;98195.73;;;8.24;86.59
62864;BME280;48954;59.950;11.014;2022-10-16T11:22:45;98192.81;;;8.31;86.63
62864;BME280;48954;59.950;11.014;2022-10-16T11:25:16;98193.30;;;8.33;86.55
62864;BME280;48954;59.950;11.014;2022-10-16T11:30:43;98182.02;;;8.33;86.27
62864;BME280;48954;59.950;11.014;2022-10-16T11:33:20;98178.41;;;8.30;86.28
62864;BME280;48954;59.950;11.014;2022-10-16T11:36:14;98184.48;;;8.28;86.11
62864;BME280;48954;59.950;11.014;2022-10-16T11:39:02;98187.60;;;8.25;86.21
62864;BME280;48954;59.950;11.014;2022-10-16T11:41:42;98183.42;;;8.22;86.05
62864;BME280;48954;59.950;11.014;2022-10-16T11:50:25;98189.58;;;8.07;85.93
62864;BME280;48954;59.950;11.014;2022-10-16T11:55:39;98180.50;;;7.96;85.96
62864;BME280;48954;59.950;11.014;2022-10-16T12:07:06;98161.05;;;7.68;86.08
62864;BME280;48954;59.950;11.014;2022-10-16T12:09:37;98163.38;;;7.68;86.34
62864;BME280;48954;59.950;11.014;2022-10-16T12:12:04;98155.48;;;7.64;86.44
62864;BME280;48954;59.950;11.014;2022-10-16T12:14:59;98156.77;;;7.61;86.40
62864;BME280;48954;59.950;11.014;2022-10-16T12:17:35;98159.45;;;7.55;86.24
62864;BME280;48954;59.950;11.014;2022-10-16T12:22:55;98161.75;;;7.48;86.62
62864;BME280;48954;59.950;11.014;2022-10-16T12:25:27;98163.27;;;7.45;86.65
62864;BME280;48954;59.950;11.014;2022-10-16T12:28:20;98158.63;;;7.41;86.72
62864;BME280;48954;59.950;11.014;2022-10-16T12:31:03;98161.44;;;7.41;86.80
62864;BME280;48954;59.950;11.014;2022-10-16T12:33:32;98161.66;;;7.39;86.73
62864;BME280;48954;59.950;11.014;2022-10-16T12:36:03;98160.14;;;7.36;86.71
62864;BME280;48954;59.950;11.014;2022-10-16T12:38:37;98164.02;;;7.34;86.85
62864;BME280;48954;59.950;11.014;2022-10-16T12:41:07;98165.70;;;7.30;86.71
62864;BME280;48954;59.950;11.014;2022-10-16T12:43:45;98175.98;;;7.25;86.81
62864;BME280;48954;59.950;11.014;2022-10-16T12:48:43;98180.87;;;7.16;86.67
62864;BME280;48954;59.950;11.014;2022-10-16T12:51:33;98173.20;;;7.14;86.85
62864;BME280;48954;59.950;11.014;2022-10-16T12:54:14;98161.56;;;7.12;87.00
62864;BME280;48954;59.950;11.014;2022-10-16T12:57:12;98152.85;;;7.09;87.03
62864;BME280;48954;59.950;11.014;2022-10-16T13:03:03;98150.44;;;7.03;87.05
62864;BME280;48954;59.950;11.014;2022-10-16T13:08:24;98140.76;;;7.04;87.05
62864;BME280;48954;59.950;11.014;2022-10-16T13:11:05;98129.98;;;7.04;87.10
62864;BME280;48954;59.950;11.014;2022-10-16T13:22:15;98137.09;;;7.10;87.31
62864;BME280;48954;59.950;11.014;2022-10-16T13:25:15;98141.96;;;7.15;87.31
62864;BME280;48954;59.950;11.014;2022-10-16T13:28:04;98141.02;;;7.20;87.33
62864;BME280;48954;59.950;11.014;2022-10-16T13:31:04;98143.23;;;7.25;87.32
62864;BME280;48954;59.950;11.014;2022-10-16T13:33:54;98146.06;;;7.28;87.34
62864;BME280;48954;59.950;11.014;2022-10-16T13:36:33;98142.48;;;7.28;87.11
62864;BME280;48954;59.950;11.014;2022-10-16T13:39:30;98135.75;;;7.34;87.11
62864;BME280;48954;59.950;11.014;2022-10-16T13:42:09;98130.31;;;7.38;87.23
62864;BME280;48954;59.950;11.014;2022-10-16T13:44:54;98127.13;;;7.40;87.06
62864;BME280;48954;59.950;11.014;2022-10-16T13:47:43;98107.98;;;7.40;87.00
62864;BME280;48954;59.950;11.014;2022-10-16T13:50:29;98097.69;;;7.36;87.00
62864;BME280;48954;59.950;11.014;2022-10-16T13:56:09;98140.73;;;7.39;87.08
62864;BME280;48954;59.950;11.014;2022-10-16T13:58:41;98141.18;;;7.39;87.13
62864;BME280;48954;59.950;11.014;2022-10-16T14:04:20;98145.26;;;7.38;87.09
62864;BME280;48954;59.950;11.014;2022-10-16T14:06:49;98144.85;;;7.38;86.92
62864;BME280;48954;59.950;11.014;2022-10-16T14:10:00;98153.75;;;7.37;87.14
62864;BME280;48954;59.950;11.014;2022-10-16T14:13:02;98167.19;;;7.36;87.10
62864;BME280;48954;59.950;11.014;2022-10-16T14:15:53;98169.42;;;7.34;87.05
62864;BME280;48954;59.950;11.014;2022-10-16T14:18:33;98167.47;;;7.34;87.07
62864;BME280;48954;59.950;11.014;2022-10-16T14:21:14;98152.21;;;7.24;87.14
62864;BME280;48954;59.950;11.014;2022-10-16T14:23:42;98156.34;;;7.31;86.99
62864;BME280;48954;59.950;11.014;2022-10-16T14:26:17;98155.61;;;7.30;87.00
62864;BME280;48954;59.950;11.014;2022-10-16T14:28:49;98157.33;;;7.29;86.71
62864;BME280;48954;59.950;11.014;2022-10-16T14:31:36;98165.60;;;7.26;86.77
62864;BME280;48954;59.950;11.014;2022-10-16T14:34:02;98177.52;;;7.24;86.84
62864;BME280;48954;59.950;11.014;2022-10-16T14:36:29;98177.98;;;7.23;86.73
62864;BME280;48954;59.950;11.014;2022-10-16T14:39:26;98177.66;;;7.21;86.76
62864;BME280;48954;59.950;11.014;2022-10-16T14:41:58;98183.09;;;7.17;86.78
62864;BME280;48954;59.950;11.014;2022-10-16T14:45:11;98189.95;;;7.17;87.00
62864;BME280;48954;59.950;11.014;2022-10-16T14:48:24;98190.16;;;7.16;86.98
62864;BME280;48954;59.950;11.014;2022-10-16T14:51:19;98197.18;;;7.13;86.94
62864;BME280;48954;59.950;11.014;2022-10-16T14:53:49;98215.77;;;7.11;87.00
62864;BME280;48954;59.950;11.014;2022-10-16T14:59:46;98223.94;;;7.09;87.04
62864;BME280;48954;59.950;11.014;2022-10-16T15:04:50;98237.43;;;7.08;87.07
62864;BME280;48954;59.950;11.014;2022-10-16T15:07:16;98230.10;;;7.08;86.97
62864;BME280;48954;59.950;11.014;2022-10-16T15:09:59;98223.52;;;7.08;86.80
62864;BME280;48954;59.950;11.014;2022-10-16T15:12:49;98224.58;;;7.05;86.76
62864;BME280;48954;59.950;11.014;2022-10-16T15:15:46;98226.81;;;7.03;86.76
62864;BME280;48954;59.950;11.014;2022-10-16T15:18:13;98221.36;;;7.04;86.83
62864;BME280;48954;59.950;11.014;2022-10-16T15:20:43;98221.15;;;7.06;86.76
62864;BME280;48954;59.950;11.014;2022-10-16T15:23:15;98225.02;;;7.08;86.83
62864;BME280;48954;59.950;11.014;2022-10-16T15:26:07;98231.52;;;7.10;86.77
62864;BME280;48954;59.950;11.014;2022-10-16T15:28:36;98235.30;;;7.12;86.79
62864;BME280;48954;59.950;11.014;2022-10-16T15:31:04;98238.83;;;7.13;86.43
62864;BME280;48954;59.950;11.014;2022-10-16T15:33:52;98242.58;;;7.13;86.58
62864;BME280;48954;59.950;11.014;2022-10-16T15:36:32;98249.45;;;7.14;86.35
62864;BME280;48954;59.950;11.014;2022-10-16T15:39:00;98257.89;;;7.13;86.37
62864;BME280;48954;59.950;11.014;2022-10-16T15:41:54;98265.77;;;7.12;86.30
62864;BME280;48954;59.950;11.014;2022-10-16T15:44:20;98269.94;;;7.09;86.42